createdAt,value
2022-10-31T00:07:57.441Z,96.45
2022-10-31T00:18:20.296Z,95.95
2022-10-31T00:28:45.340Z,97.90
2022-10-31T00:39:10.590Z,90.55
2022-10-31T00:49:31.765Z,90.65
2022-10-31T00:59:54.670Z,87.60
2022-10-31T01:10:19.285Z,69.93
2022-10-31T01:20:42.241Z,79.20
2022-10-31T01:31:05.257Z,66.95
2022-10-31T01:41:31.485Z,66.32
2022-10-31T01:51:59.041Z,93.70
2022-10-31T02:02:22.245Z,65.70
2022-10-31T02:12:44.885Z,69.57
2022-10-31T02:23:47.830Z,72.38
2022-10-31T02:34:20.032Z,86.00
2022-10-31T02:44:49.841Z,63.65
2022-10-31T02:55:34.365Z,77.50
2022-10-31T03:16:34.249Z,55.95
2022-10-31T03:26:59.762Z,61.35
2022-10-31T03:37:25.387Z,61.97
2022-10-31T03:47:48.290Z,44.92
2022-10-31T04:08:47.073Z,63.55
2022-10-31T04:19:13.688Z,57.22
2022-10-31T04:29:35.396Z,59.08
2022-10-31T04:39:58.182Z,56.75
2022-10-31T04:50:38.322Z,61.63
2022-10-31T05:01:01.710Z,62.78
2022-10-31T05:11:23.568Z,41.70
2022-10-31T05:21:49.497Z,56.67
2022-10-31T05:32:11.389Z,48.00
2022-10-31T05:43:00.812Z,56.53
2022-10-31T05:53:22.651Z,49.90
2022-10-31T06:03:45.988Z,57.53
2022-10-31T06:14:11.320Z,52.30
2022-10-31T06:24:47.585Z,53.40
2022-10-31T06:35:18.303Z,55.05
2022-10-31T06:45:41.467Z,54.25
2022-10-31T06:56:22.003Z,64.50
2022-10-31T07:06:51.856Z,51.53
2022-10-31T07:17:16.689Z,69.75
2022-10-31T07:27:43.599Z,60.75
2022-10-31T07:38:12.070Z,54.92
2022-10-31T07:48:35.311Z,64.30
2022-10-31T07:59:15.732Z,69.38
2022-10-31T08:09:39.083Z,66.85
2022-10-31T08:20:12.582Z,81.03
2022-10-31T08:30:42.410Z,72.55
2022-10-31T08:41:26.740Z,85.40
2022-10-31T08:51:50.730Z,86.65
2022-10-31T09:02:14.873Z,87.25
2022-10-31T09:12:37.954Z,82.30
2022-10-31T09:23:19.862Z,70.45
2022-10-31T09:33:43.140Z,73.93
2022-10-31T09:44:34.194Z,89.72
2022-10-31T09:55:01.562Z,96.22
2022-10-31T10:05:28.574Z,86.05
2022-10-31T10:16:11.143Z,90.43
2022-10-31T10:26:38.117Z,90.10
2022-10-31T10:37:04.966Z,83.47
2022-10-31T10:47:41.430Z,86.07
2022-10-31T10:58:05.728Z,84.38
2022-10-31T11:08:28.092Z,91.80
2022-10-31T11:18:51.363Z,82.18
2022-10-31T11:29:16.546Z,95.10
2022-10-31T11:39:43.426Z,88.85
2022-10-31T11:50:13.007Z,86.97
2022-10-31T12:00:39.637Z,75.75
2022-10-31T12:11:13.878Z,86.93
2022-10-31T12:21:54.465Z,82.83
2022-10-31T12:32:30.129Z,94.88
2022-10-31T12:43:05.722Z,76.90
2022-10-31T12:53:40.301Z,88.68
2022-10-31T13:04:06.719Z,81.15
2022-10-31T13:14:34.657Z,91.28
2022-10-31T13:25:04.292Z,92.32
2022-10-31T13:35:31.459Z,85.63
2022-10-31T13:46:25.190Z,101.70
2022-10-31T13:57:33.883Z,85.90
2022-10-31T14:08:25.786Z,82.38
2022-10-31T14:18:58.922Z,86.97
2022-10-31T14:29:27.903Z,92.45
2022-10-31T14:40:15.283Z,88.70
2022-10-31T14:50:46.390Z,77.03
2022-10-31T15:01:09.243Z,100.43
2022-10-31T15:11:39.283Z,95.55
2022-10-31T15:22:00.769Z,96.78
2022-10-31T15:32:25.832Z,89.47
2022-10-31T15:42:52.655Z,93.95
2022-10-31T15:53:20.427Z,117.15
2022-10-31T16:03:42.939Z,112.40
2022-10-31T16:14:08.468Z,126.38
2022-10-31T16:24:33.781Z,125.50
2022-10-31T16:35:26.726Z,144.10
2022-10-31T16:45:49.850Z,153.65
2022-10-31T16:56:20.614Z,147.95
2022-10-31T17:06:44.298Z,164.05
2022-10-31T17:17:09.506Z,180.80
2022-10-31T17:27:30.931Z,196.20
2022-10-31T17:37:53.893Z,188.30
2022-10-31T17:48:16.587Z,191.60
2022-10-31T17:58:41.227Z,211.80
2022-10-31T18:09:06.907Z,183.57
2022-10-31T18:19:29.691Z,182.30
2022-10-31T18:29:53.716Z,168.05
2022-10-31T18:40:17.031Z,200.82
2022-10-31T18:50:41.849Z,221.25
2022-10-31T19:02:17.288Z,195.82
2022-10-31T19:12:42.768Z,224.40
2022-10-31T19:23:04.804Z,224.02
2022-10-31T19:33:34.917Z,194.75
2022-10-31T19:44:00.259Z,207.60
2022-10-31T19:54:23.545Z,226.18
2022-10-31T20:04:45.462Z,236.77
2022-10-31T20:15:09.206Z,253.50
2022-10-31T20:25:32.359Z,242.68
2022-10-31T20:35:55.067Z,241.40
2022-10-31T20:46:21.224Z,250.43
2022-10-31T20:56:43.797Z,266.92
2022-10-31T21:07:05.590Z,270.05
2022-10-31T21:17:29.690Z,268.75
2022-10-31T21:27:53.169Z,266.20
2022-10-31T21:38:15.876Z,270.70
2022-10-31T21:48:39.066Z,256.90
2022-10-31T21:59:01.924Z,297.58
2022-10-31T22:09:23.762Z,240.07
2022-10-31T22:19:46.888Z,231.77
2022-10-31T22:30:09.821Z,239.50
2022-10-31T22:40:34.292Z,244.73
2022-10-31T22:50:55.897Z,269.35
2022-10-31T23:01:20.629Z,252.68
2022-10-31T23:11:42.803Z,239.80
2022-10-31T23:22:05.610Z,224.25
2022-10-31T23:32:30.221Z,231.77
2022-10-31T23:42:53.346Z,235.43
2022-10-31T23:53:14.872Z,207.27
